createdAt,value
2022-10-02T00:00:20.181Z,63.31
2022-10-02T00:03:25.359Z,63.67
2022-10-02T00:06:12.237Z,63.91
2022-10-02T00:09:00.042Z,63.75
2022-10-02T00:11:46.316Z,63.57
2022-10-02T00:14:23.407Z,63.29
2022-10-02T00:16:59.823Z,63.66
2022-10-02T00:19:36.146Z,63.84
2022-10-02T00:25:52.246Z,63.83
2022-10-02T00:28:34.562Z,63.65
2022-10-02T00:31:30.965Z,63.77
2022-10-02T00:34:24.073Z,63.65
2022-10-02T00:37:24.923Z,63.68
2022-10-02T00:40:03.780Z,63.87
2022-10-02T00:42:45.552Z,63.89
2022-10-02T00:45:37.615Z,63.93
2022-10-02T00:48:38.973Z,64.24
2022-10-02T00:51:33.258Z,64.14
2022-10-02T00:54:09.679Z,64.17
2022-10-02T00:56:55.732Z,64.30
2022-10-02T00:59:36.850Z,64.39
2022-10-02T01:02:39.701Z,64.40
2022-10-02T01:05:14.263Z,64.47
2022-10-02T01:07:52.708Z,64.57
2022-10-02T01:10:28.980Z,64.75
2022-10-02T01:13:02.583Z,64.94
2022-10-02T01:15:48.819Z,65.05
2022-10-02T01:18:22.788Z,65.04
2022-10-02T01:21:04.620Z,65.16
2022-10-02T01:23:48.241Z,65.19
2022-10-02T01:26:21.989Z,65.04
2022-10-02T01:28:56.110Z,65.35
2022-10-02T01:31:29.239Z,65.49
2022-10-02T01:34:03.657Z,65.50
2022-10-02T01:36:38.103Z,65.45
2022-10-02T01:39:12.292Z,65.51
2022-10-02T01:41:47.211Z,65.62
2022-10-02T01:44:22.760Z,65.70
2022-10-02T01:47:18.193Z,65.69
2022-10-02T01:50:28.467Z,65.42
2022-10-02T01:53:23.324Z,65.48
2022-10-02T01:56:01.944Z,65.53
2022-10-02T01:58:56.004Z,65.70
2022-10-02T02:01:28.845Z,65.90
2022-10-02T02:04:23.676Z,65.89
2022-10-02T02:07:02.453Z,66.01
2022-10-02T02:09:47.568Z,66.15
2022-10-02T02:12:41.880Z,66.25
2022-10-02T02:15:32.296Z,66.10
2022-10-02T02:18:20.933Z,66.15
2022-10-02T02:20:58.167Z,66.18
2022-10-02T02:23:38.474Z,66.24
2022-10-02T02:26:14.465Z,66.26
2022-10-02T02:28:57.180Z,66.31
2022-10-02T02:31:39.945Z,66.29
2022-10-02T02:34:19.257Z,66.62
2022-10-02T02:37:00.675Z,66.66
2022-10-02T02:40:18.083Z,66.89
2022-10-02T02:43:10.155Z,67.06
2022-10-02T02:45:54.166Z,67.09
2022-10-02T02:49:02.436Z,68.26
2022-10-02T02:51:41.838Z,68.16
2022-10-02T02:54:29.567Z,68.00
2022-10-02T02:57:06.745Z,69.57
2022-10-02T02:59:44.049Z,68.67
2022-10-02T03:02:17.658Z,68.78
2022-10-02T03:04:51.862Z,69.00
2022-10-02T03:07:32.535Z,69.20
2022-10-02T03:10:18.197Z,69.20
2022-10-02T03:13:29.278Z,69.37
2022-10-02T03:16:14.437Z,69.44
2022-10-02T03:19:04.115Z,69.48
2022-10-02T03:22:06.997Z,69.63
2022-10-02T03:24:54.741Z,69.78
2022-10-02T03:27:35.250Z,69.72
2022-10-02T03:30:14.429Z,69.73
2022-10-02T03:32:52.269Z,69.87
2022-10-02T03:35:27.502Z,69.83
2022-10-02T03:38:07.357Z,70.08
2022-10-02T03:40:41.015Z,70.35
2022-10-02T03:43:33.436Z,70.11
2022-10-02T03:46:07.423Z,70.38
2022-10-02T03:48:41.383Z,70.29
2022-10-02T03:51:15.953Z,70.41
2022-10-02T03:53:49.617Z,70.27
2022-10-02T03:56:46.889Z,70.39
2022-10-02T03:59:40.812Z,70.46
2022-10-02T04:02:42.736Z,70.48
2022-10-02T04:06:00.200Z,70.64
2022-10-02T04:08:49.005Z,70.77
2022-10-02T04:12:01.480Z,70.79
2022-10-02T04:14:48.225Z,70.92
2022-10-02T04:17:34.368Z,71.87
2022-10-02T04:20:22.696Z,71.99
2022-10-02T04:23:05.456Z,72.00
2022-10-02T04:25:51.751Z,71.87
2022-10-02T04:28:32.951Z,71.80
2022-10-02T04:31:11.097Z,71.84
2022-10-02T04:33:45.672Z,71.82
2022-10-02T04:36:52.329Z,71.79
2022-10-02T04:39:52.212Z,71.86
2022-10-02T04:42:36.416Z,71.92
2022-10-02T04:45:41.412Z,71.93
2022-10-02T04:48:54.770Z,72.05
2022-10-02T04:51:50.297Z,72.12
2022-10-02T04:54:51.368Z,72.19
2022-10-02T04:57:44.893Z,72.29
2022-10-02T05:00:23.478Z,72.32
2022-10-02T05:03:10.542Z,72.38
2022-10-02T05:06:00.852Z,72.45
2022-10-02T05:08:46.229Z,72.57
2022-10-02T05:11:51.291Z,72.54
2022-10-02T05:14:43.479Z,72.49
2022-10-02T05:17:38.089Z,72.51
2022-10-02T05:20:44.682Z,72.58
2022-10-02T05:23:43.017Z,72.98
2022-10-02T05:26:52.060Z,72.92
2022-10-02T05:29:42.878Z,73.09
2022-10-02T05:32:33.758Z,73.00
2022-10-02T05:35:34.713Z,73.44
2022-10-02T05:38:25.015Z,72.03
2022-10-02T05:41:11.635Z,71.46
2022-10-02T05:44:06.525Z,70.75
2022-10-02T05:46:54.741Z,70.64
2022-10-02T05:49:46.303Z,70.24
2022-10-02T05:52:32.574Z,69.66
2022-10-02T05:55:36.967Z,68.79
2022-10-02T05:58:25.592Z,68.14
2022-10-02T06:01:18.393Z,68.16
2022-10-02T06:03:53.322Z,68.62
2022-10-02T06:06:54.884Z,69.54
2022-10-02T06:09:33.704Z,70.53
2022-10-02T06:12:34.857Z,70.24
2022-10-02T06:15:27.177Z,69.61
2022-10-02T06:18:02.671Z,69.32
2022-10-02T06:20:48.871Z,68.85
2022-10-02T06:23:25.806Z,68.47
2022-10-02T06:26:01.801Z,67.92
2022-10-02T06:28:55.013Z,68.03
2022-10-02T06:31:49.253Z,67.37
2022-10-02T06:34:23.045Z,66.69
2022-10-02T06:37:23.223Z,64.72
2022-10-02T06:40:01.944Z,62.64
2022-10-02T06:42:54.650Z,61.54
2022-10-02T06:45:27.678Z,59.93
2022-10-02T06:48:47.020Z,59.95
2022-10-02T06:51:29.169Z,58.64
2022-10-02T06:54:17.750Z,59.14
2022-10-02T06:57:12.260Z,58.86
2022-10-02T06:59:52.120Z,58.30
2022-10-02T07:02:30.511Z,57.30
2022-10-02T07:05:33.097Z,57.70
2022-10-02T07:08:14.754Z,57.94
2022-10-02T07:11:11.567Z,58.06
2022-10-02T07:14:10.393Z,58.14
2022-10-02T07:16:44.045Z,57.72
2022-10-02T07:19:46.041Z,57.59
2022-10-02T07:22:44.860Z,57.58
2022-10-02T07:25:35.193Z,57.11
2022-10-02T07:28:28.434Z,57.35
2022-10-02T07:31:30.189Z,57.42
2022-10-02T07:34:35.983Z,57.03
2022-10-02T07:37:21.551Z,56.50
2022-10-02T07:40:11.808Z,56.19
2022-10-02T07:42:51.385Z,55.85
2022-10-02T07:45:50.711Z,55.48
2022-10-02T07:48:33.167Z,55.09
2022-10-02T07:51:34.082Z,54.50
2022-10-02T07:54:33.370Z,54.45
2022-10-02T07:57:16.134Z,54.49
2022-10-02T08:00:04.588Z,54.35
2022-10-02T08:03:05.009Z,54.62
2022-10-02T08:05:50.771Z,54.48
2022-10-02T08:08:23.641Z,54.19
2022-10-02T08:11:06.368Z,54.30
2022-10-02T08:13:57.910Z,53.91
2022-10-02T08:19:44.505Z,53.70
2022-10-02T08:22:28.847Z,53.42
2022-10-02T08:25:26.469Z,52.47
2022-10-02T08:28:44.041Z,51.91
2022-10-02T08:31:18.178Z,51.46
2022-10-02T08:33:52.429Z,50.93
2022-10-02T08:36:44.369Z,50.81
2022-10-02T08:39:23.154Z,50.58
2022-10-02T08:42:15.985Z,49.65
2022-10-02T08:45:20.143Z,49.00
2022-10-02T08:48:13.335Z,49.30
2022-10-02T08:51:21.955Z,49.93
2022-10-02T08:54:16.245Z,49.86
2022-10-02T08:56:54.107Z,49.49
2022-10-02T09:00:18.030Z,49.03
2022-10-02T09:03:09.903Z,48.75
2022-10-02T09:06:10.159Z,47.88
2022-10-02T09:09:00.467Z,47.52
2022-10-02T09:12:21.080Z,48.17
2022-10-02T09:15:01.001Z,48.29
2022-10-02T09:17:51.623Z,48.59
2022-10-02T09:20:44.856Z,48.85
2022-10-02T09:23:53.671Z,48.58
2022-10-02T09:27:01.130Z,48.90
2022-10-02T09:29:48.831Z,49.27
2022-10-02T09:32:58.599Z,49.37
2022-10-02T09:36:36.362Z,50.02
2022-10-02T09:39:31.414Z,49.61
2022-10-02T09:42:16.075Z,49.43
2022-10-02T09:45:08.111Z,49.33
2022-10-02T09:48:09.129Z,49.07
2022-10-02T09:50:58.852Z,48.92
2022-10-02T09:53:59.803Z,49.01
2022-10-02T09:57:01.754Z,48.66
2022-10-02T09:59:53.180Z,47.30
2022-10-02T10:02:42.537Z,45.83
2022-10-02T10:05:23.373Z,44.63
2022-10-02T10:07:56.583Z,45.00
2022-10-02T10:11:01.196Z,44.35
2022-10-02T10:13:56.749Z,45.52
2022-10-02T10:16:51.368Z,45.89
2022-10-02T10:19:45.868Z,45.77
2022-10-02T10:22:52.483Z,45.89
2022-10-02T10:25:52.186Z,45.98
2022-10-02T10:28:45.935Z,45.59
2022-10-02T10:32:04.260Z,46.07
2022-10-02T10:34:48.823Z,45.90
2022-10-02T10:38:07.682Z,45.65
2022-10-02T10:41:15.114Z,45.50
2022-10-02T10:44:24.712Z,44.98
2022-10-02T10:47:32.658Z,45.15
2022-10-02T10:50:37.011Z,44.96
2022-10-02T10:53:10.892Z,44.58
2022-10-02T10:56:13.390Z,44.56
2022-10-02T10:58:59.297Z,44.29
2022-10-02T11:02:22.116Z,44.08
2022-10-02T11:05:23.983Z,44.06
2022-10-02T11:08:31.424Z,43.53
2022-10-02T11:11:20.650Z,43.48
2022-10-02T11:14:27.556Z,43.41
2022-10-02T11:17:33.778Z,42.08
2022-10-02T11:20:10.247Z,41.76
2022-10-02T11:23:10.872Z,41.57
2022-10-02T11:25:53.120Z,39.32
2022-10-02T11:28:43.847Z,38.11
2022-10-02T11:31:30.604Z,39.39
2022-10-02T11:34:55.322Z,38.94
2022-10-02T11:37:46.807Z,38.38
2022-10-02T11:40:45.974Z,38.04
2022-10-02T11:43:31.307Z,38.57
2022-10-02T11:46:26.211Z,38.13
2022-10-02T11:49:29.596Z,37.90
2022-10-02T11:52:24.831Z,37.58
2022-10-02T11:55:30.969Z,37.74
2022-10-02T11:58:55.980Z,38.10
2022-10-02T12:01:47.995Z,38.36
2022-10-02T12:04:34.777Z,38.88
2022-10-02T12:07:43.071Z,38.74
2022-10-02T12:10:49.491Z,39.23
2022-10-02T12:13:30.838Z,39.23
2022-10-02T12:16:42.851Z,38.97
2022-10-02T12:20:02.994Z,38.83
2022-10-02T12:23:19.382Z,38.64
2022-10-02T12:26:41.627Z,37.99
2022-10-02T12:29:48.002Z,37.86
2022-10-02T12:32:53.757Z,38.42
2022-10-02T12:35:38.668Z,37.77
2022-10-02T12:38:17.325Z,37.59
2022-10-02T12:41:03.775Z,37.39
2022-10-02T12:44:06.292Z,37.68
2022-10-02T12:47:11.629Z,37.51
2022-10-02T12:50:05.461Z,37.75
2022-10-02T12:53:07.907Z,37.63
2022-10-02T12:55:59.051Z,37.49
2022-10-02T12:59:01.982Z,37.99
2022-10-02T13:02:08.045Z,38.46
2022-10-02T13:05:22.493Z,38.69
2022-10-02T13:08:14.812Z,39.15
2022-10-02T13:11:06.875Z,39.55
2022-10-02T13:13:42.740Z,39.79
2022-10-02T13:16:43.140Z,39.54
2022-10-02T13:19:34.892Z,39.96
2022-10-02T13:22:18.428Z,39.95
2022-10-02T13:25:20.956Z,40.04
2022-10-02T13:28:02.661Z,40.09
2022-10-02T13:30:59.046Z,40.13
2022-10-02T13:34:00.809Z,40.44
2022-10-02T13:36:58.440Z,40.66
2022-10-02T13:39:41.602Z,40.87
2022-10-02T13:42:29.548Z,41.26
2022-10-02T13:45:17.605Z,41.43
2022-10-02T13:48:15.263Z,41.48
2022-10-02T13:50:50.672Z,41.66
2022-10-02T13:53:43.226Z,41.62
2022-10-02T13:56:53.009Z,41.66
2022-10-02T13:59:53.663Z,41.82
2022-10-02T14:03:10.879Z,42.14
2022-10-02T14:05:57.637Z,42.18
2022-10-02T14:08:55.649Z,42.15
2022-10-02T14:11:47.538Z,42.03
2022-10-02T14:14:39.449Z,42.19
2022-10-02T14:17:51.473Z,41.80
2022-10-02T14:20:51.156Z,41.84
2022-10-02T14:23:45.291Z,42.02
2022-10-02T14:26:27.007Z,42.14
2022-10-02T14:29:10.842Z,42.08
2022-10-02T14:32:01.238Z,42.25
2022-10-02T14:34:58.396Z,42.34
2022-10-02T14:38:05.725Z,42.49
2022-10-02T14:40:52.709Z,42.45
2022-10-02T14:43:50.906Z,42.52
2022-10-02T14:47:00.362Z,42.72
2022-10-02T14:50:02.342Z,43.14
2022-10-02T14:52:49.470Z,43.43
2022-10-02T14:55:45.748Z,43.70
2022-10-02T14:58:33.288Z,43.87
2022-10-02T15:01:19.617Z,44.16
2022-10-02T15:04:26.000Z,44.18
2022-10-02T15:07:10.702Z,44.11
2022-10-02T15:10:04.694Z,44.28
2022-10-02T15:12:44.317Z,44.29
2022-10-02T15:15:48.178Z,44.61
2022-10-02T15:18:56.658Z,45.48
2022-10-02T15:21:52.338Z,46.30
2022-10-02T15:24:37.456Z,46.16
2022-10-02T15:27:29.542Z,46.58
2022-10-02T15:30:25.625Z,46.67
2022-10-02T15:33:15.976Z,47.34
2022-10-02T15:36:29.475Z,47.84
2022-10-02T15:39:29.064Z,48.82
2022-10-02T15:42:13.002Z,49.33
2022-10-02T15:45:06.817Z,49.11
2022-10-02T15:48:01.260Z,49.75
2022-10-02T15:50:36.623Z,49.70
2022-10-02T15:53:33.842Z,50.05
2022-10-02T15:56:37.078Z,50.98
2022-10-02T15:59:36.248Z,51.50
2022-10-02T16:02:25.063Z,51.19
2022-10-02T16:05:17.388Z,51.92
2022-10-02T16:08:27.807Z,51.57
2022-10-02T16:11:40.753Z,51.88
2022-10-02T16:14:25.857Z,52.85
2022-10-02T16:17:24.924Z,53.26
2022-10-02T16:20:26.135Z,52.48
2022-10-02T16:23:15.790Z,52.20
2022-10-02T16:26:06.450Z,53.00
2022-10-02T16:28:56.303Z,53.18
2022-10-02T16:32:05.026Z,53.72
2022-10-02T16:35:08.664Z,53.42
2022-10-02T16:37:49.512Z,53.12
2022-10-02T16:40:41.185Z,53.35
2022-10-02T16:43:47.201Z,53.44
2022-10-02T16:46:46.514Z,54.09
2022-10-02T16:49:35.547Z,54.50
2022-10-02T16:52:25.757Z,54.60
2022-10-02T16:55:27.529Z,55.06
2022-10-02T16:58:27.284Z,55.10
2022-10-02T17:01:24.337Z,54.90
2022-10-02T17:04:28.582Z,54.85
2022-10-02T17:07:26.708Z,54.81
2022-10-02T17:10:19.263Z,54.74
2022-10-02T17:13:03.500Z,54.81
2022-10-02T17:15:54.404Z,54.77
2022-10-02T17:18:59.598Z,54.77
2022-10-02T17:21:46.370Z,54.89
2022-10-02T17:24:46.569Z,54.93
2022-10-02T17:27:37.275Z,55.12
2022-10-02T17:30:31.507Z,55.45
2022-10-02T17:33:08.101Z,55.88
2022-10-02T17:36:14.410Z,56.04
2022-10-02T17:39:06.362Z,56.27
2022-10-02T17:41:50.385Z,56.51
2022-10-02T17:44:44.434Z,56.67
2022-10-02T17:47:31.541Z,56.76
2022-10-02T17:50:21.809Z,56.97
2022-10-02T17:53:22.840Z,57.19
2022-10-02T17:56:36.870Z,57.47
2022-10-02T18:00:04.121Z,57.63
2022-10-02T18:02:45.714Z,57.87
2022-10-02T18:05:32.508Z,58.04
2022-10-02T18:08:49.132Z,58.03
2022-10-02T18:11:41.390Z,58.25
2022-10-02T18:14:36.389Z,58.41
2022-10-02T18:17:38.894Z,58.72
2022-10-02T18:20:39.546Z,58.80
2022-10-02T18:23:34.706Z,58.91
2022-10-02T18:26:32.372Z,59.04
2022-10-02T18:29:36.439Z,59.34
2022-10-02T18:32:45.488Z,59.56
2022-10-02T18:35:46.223Z,59.49
2022-10-02T18:38:48.441Z,59.44
2022-10-02T18:41:43.065Z,59.44
2022-10-02T18:44:36.066Z,59.57
2022-10-02T18:47:41.777Z,59.82
2022-10-02T18:50:35.646Z,59.98
2022-10-02T18:53:37.668Z,60.22
2022-10-02T18:56:12.981Z,60.43
2022-10-02T18:58:53.863Z,60.57
2022-10-02T19:02:04.464Z,60.65
2022-10-02T19:05:05.938Z,61.01
2022-10-02T19:07:58.155Z,61.25
2022-10-02T19:10:30.129Z,61.32
2022-10-02T19:13:30.128Z,61.42
2022-10-02T19:16:25.747Z,61.33
2022-10-02T19:19:20.890Z,61.53
2022-10-02T19:21:59.133Z,61.63
2022-10-02T19:24:40.222Z,61.67
2022-10-02T19:27:24.697Z,61.72
2022-10-02T19:30:03.865Z,61.81
2022-10-02T19:32:42.329Z,61.90
2022-10-02T19:35:21.287Z,62.10
2022-10-02T19:38:01.230Z,62.15
2022-10-02T19:40:37.822Z,62.34
2022-10-02T19:43:31.587Z,62.42
2022-10-02T19:46:08.915Z,62.63
2022-10-02T19:48:42.971Z,62.88
2022-10-02T19:51:43.511Z,63.05
2022-10-02T19:54:25.107Z,62.94
2022-10-02T19:57:06.572Z,63.23
2022-10-02T19:59:50.743Z,64.30
2022-10-02T20:02:37.905Z,65.36
2022-10-02T20:05:17.368Z,65.33
2022-10-02T20:07:55.744Z,65.34
2022-10-02T20:10:39.889Z,64.47
2022-10-02T20:13:22.206Z,64.47
2022-10-02T20:16:21.581Z,64.62
2022-10-02T20:18:54.905Z,64.68
2022-10-02T20:21:50.392Z,64.41
2022-10-02T20:24:54.463Z,64.31
2022-10-02T20:27:56.413Z,64.28
2022-10-02T20:30:36.873Z,64.35
2022-10-02T20:33:26.726Z,65.17
2022-10-02T20:36:39.583Z,64.74
2022-10-02T20:39:18.837Z,64.59
2022-10-02T20:42:23.321Z,65.80
2022-10-02T20:44:56.201Z,65.90
2022-10-02T20:47:34.279Z,66.20
2022-10-02T20:50:29.514Z,65.24
2022-10-02T20:53:33.976Z,65.61
2022-10-02T20:56:26.564Z,65.31
2022-10-02T20:59:09.732Z,65.86
2022-10-02T21:01:47.459Z,66.24
2022-10-02T21:04:55.309Z,69.33
2022-10-02T21:07:51.472Z,68.48
2022-10-02T21:10:41.318Z,69.50
2022-10-02T21:13:33.499Z,67.69
2022-10-02T21:16:35.773Z,67.65
2022-10-02T21:19:24.717Z,67.67
2022-10-02T21:22:33.009Z,68.36
2022-10-02T21:25:21.728Z,67.55
2022-10-02T21:28:13.809Z,67.22
2022-10-02T21:31:24.163Z,67.33
2022-10-02T21:34:31.098Z,69.18
2022-10-02T21:37:16.366Z,68.14
2022-10-02T21:40:15.151Z,68.08
2022-10-02T21:43:09.131Z,67.63
2022-10-02T21:45:54.036Z,67.40
2022-10-02T21:49:05.412Z,67.43
2022-10-02T21:51:52.443Z,67.60
2022-10-02T21:55:14.003Z,68.03
2022-10-02T21:58:04.752Z,67.78
2022-10-02T22:01:08.624Z,68.10
2022-10-02T22:04:10.707Z,69.61
2022-10-02T22:07:03.241Z,68.46
2022-10-02T22:10:01.293Z,68.03
2022-10-02T22:12:38.969Z,67.85
2022-10-02T22:15:33.226Z,67.98
2022-10-02T22:18:57.279Z,67.87
2022-10-02T22:21:53.367Z,67.82
2022-10-02T22:24:34.932Z,67.97
2022-10-02T22:27:26.535Z,68.10
2022-10-02T22:30:00.174Z,68.17
2022-10-02T22:33:02.873Z,68.21
2022-10-02T22:35:44.273Z,67.86
2022-10-02T22:38:34.888Z,67.74
2022-10-02T22:41:19.091Z,67.67
2022-10-02T22:44:11.010Z,67.67
2022-10-02T22:47:07.833Z,67.87
2022-10-02T22:49:47.988Z,67.92
2022-10-02T22:52:47.960Z,68.31
2022-10-02T22:55:37.628Z,68.19
2022-10-02T22:58:17.246Z,68.24
2022-10-02T23:00:58.560Z,68.12
2022-10-02T23:03:39.647Z,68.05
2022-10-02T23:06:30.511Z,67.84
2022-10-02T23:09:09.881Z,67.61
2022-10-02T23:12:12.857Z,67.70
2022-10-02T23:15:02.119Z,67.62
2022-10-02T23:17:47.601Z,67.62
2022-10-02T23:20:31.142Z,67.90
2022-10-02T23:23:36.313Z,67.87
2022-10-02T23:26:34.750Z,67.95
2022-10-02T23:29:45.911Z,67.82
2022-10-02T23:32:24.590Z,67.69
2022-10-02T23:35:18.290Z,67.38
2022-10-02T23:38:20.375Z,67.86
2022-10-02T23:41:18.242Z,67.51
2022-10-02T23:44:12.946Z,67.41
2022-10-02T23:46:56.358Z,67.25
2022-10-02T23:49:47.067Z,67.04
2022-10-02T23:52:32.813Z,67.13
2022-10-02T23:55:40.471Z,67.21
2022-10-02T23:58:28.841Z,67.56
